This is the latest recevied weather packets stored in our database for station/object EB2EMZ-5. If no packets are shown the sender has not sent any weather packets the latest 10 day(s).
| Time | Temp. | Humidity | Pressure | Rain* | Wind** | Luminosity | Snow |
|---|---|---|---|---|---|---|---|
| 1777910717 | 35° C | 29% | 999.6 hPa | - | - | - | - |
| 1777909801 | 37.78° C | 30% | 1007.1 hPa | - | - | - | - |
| 1777909193 | 37.22° C | 34% | 1006.7 hPa | - | - | - | - |
| 1777908893 | 34.44° C | 34% | 1006.6 hPa | - | - | - | - |
| 1777908593 | 31.67° C | 35% | 1006.6 hPa | - | - | - | - |
| 1777908293 | 30.56° C | 34% | 1006.6 hPa | - | - | - | - |
| 1777907993 | 30.56° C | 34% | 1006.5 hPa | - | - | - | - |
| 1777907692 | 31.11° C | 34% | 1007.3 hPa | - | - | - | - |
| 1777870142 | 23.33° C | 35% | 1000.6 hPa | - | - | - | - |
| 1777869830 | 22.22° C | 35% | 999.2 hPa | - | - | - | - |
| 1777869530 | 21.67° C | 36% | 997.8 hPa | - | - | - | - |
| 1777869230 | 21.67° C | 36% | 997.7 hPa | - | - | - | - |
| 1777868930 | 21.67° C | 35% | 997.6 hPa | - | - | - | - |
| 1777868630 | 21.67° C | 35% | 997.6 hPa | - | - | - | - |
| 1777868030 | 21.67° C | 35% | 997.6 hPa | - | - | - | - |
| 1777867730 | 21.67° C | 35% | 997.7 hPa | - | - | - | - |
| 1777867430 | 21.67° C | 36% | 997.6 hPa | - | - | - | - |
| 1777867130 | 21.67° C | 36% | 997.6 hPa | - | - | - | - |
| 1777866830 | 21.67° C | 36% | 997.6 hPa | - | - | - | - |
| 1777866530 | 21.67° C | 35% | 997.7 hPa | - | - | - | - |
| 1777866230 | 21.67° C | 35% | 997.7 hPa | - | - | - | - |
| 1777865930 | 21.67° C | 35% | 997.8 hPa | - | - | - | - |
| 1777865630 | 21.67° C | 36% | 997.8 hPa | - | - | - | - |
| 1777865330 | 21.67° C | 35% | 997.8 hPa | - | - | - | - |
| 1777865030 | 21.67° C | 35% | 997.8 hPa | - | - | - | - |
* Rain since midnight (hover to see other rain measurements)
** Current wind speed in m/s (hover to see current wind gust speed)